Coupe de la Ligue LNPCCO, longue distance, 59, Grande Synthe, 21 fevrier 2010 - C

Date : 21/02/2010

Place Nom Licence Catégorie Club Temps Points
1 BAERT Etienne 18789 H45 5909HF 0:34:56 3539
2 GUILMAIN Melanie 20572 D16 6208HF 0:41:30 2979
3 RADONDY Théo 22370 H14 5907HF 0:42:23 2917
4 POULAIN Gael 9172 H14 5908HF 0:46:32 2656
5 LALOUX Clément 22447 H14 5907HF 0:47:25 2607
6 DELCUSE Sébastien 22373 H16 6205HF 0:48:13 2564
7 CZERNIAK Sidonie 13272 D35 6205HF 0:48:16 2561
8 SIX Pauline 20215 D16 5906HF 0:49:53 2478
9 VANOVERBERGHE Camille 21323 D16 6208HF 0:54:21 2274
10 GOURLAIN Marguerite-marie 19155 D40 6205HF 0:54:25 2272
11 PAILLEUX Steeven 22347 H16 6208HF 0:55:41 2220
12 GALET Clement 15885 H14 6208HF 0:58:07 2127
13 POULAIN Odile 1948 D45 5908HF 0:59:48 2067
14 TORZ-DRUON Magali 10081 D55 5906HF 1:04:35 1914
15 SIX Thibaut 21224 H14 5906HF 1:04:53 1905
16 SIX Yvette 22911 D45 5906HF 1:11:14 1735
17 PECQUEUR Sylvie 20425 D45 5906HF 1:13:14 1688
18 PASSEPONT Audrey 22418 D21 6205HF 1:18:12 1581
19 DUQUENE David 22552 H21 7720IF 1:21:08 1524
20 LUDEWIG-JAMES Carol 15894 D70 5907HF 1:23:04 1488
21 GRESSIER Theo 22512 H14 6208HF 1:35:23 1296
22 FAVIER Maxence 22251 H14 6208HF 1:40:54 1225
LEPERQUE Ophelie 20200 D16 6208HF pm 0